.
WxDataArchive / Data Records for 2007-04-06
2007-04-05 April 2007 2007-04-07

Data Records for Friday, 06 April 2007

Time	Temp	Chill	HIndex	Humid	Dewpt	 Wind 	HiWind	WindDir	Rain 	Barom 
-----	----	-----	------	-----	-----	------	------	-------	-----	----- 
00:00	27.5	27.5	27.5	64	16.9	0	1	248	0.00	30.019 
00:05	27.3	27.3	27.3	64	16.8	0	1	248	0.00	30.017 
00:10	27.2	27.2	27.2	65	17.0	0	1	248	0.00	30.017 
00:15	27.0	27.0	27.0	65	16.8	0	1	248	0.00	30.017 
00:20	26.9	26.9	26.9	65	16.7	0	1	248	0.00	30.016 
00:25	26.9	26.9	26.9	66	17.1	0	1	248	0.00	30.015 
00:30	26.7	26.7	26.7	66	16.9	0	2	248	0.00	30.014 
00:35	26.7	26.7	26.7	66	16.9	0	2	248	0.00	30.013 
00:40	26.6	26.6	26.6	67	17.1	0	1	248	0.00	30.012 
00:45	26.4	26.4	26.4	67	17.0	0	1	248	0.00	30.013 
00:50	26.3	26.3	26.3	67	16.9	0	2	248	0.00	30.008 
00:55	26.1	26.1	26.1	68	17.0	0	1	248	0.00	30.008 
01:00	26.0	26.0	26.0	68	16.9	0	1	248	0.00	30.005 
01:05	25.8	25.8	25.8	69	17.1	0	1	248	0.00	30.004 
01:10	25.7	25.7	25.7	69	17.0	0	1	248	0.00	30.003 
01:15	25.7	25.7	25.7	69	17.0	0	1	248	0.00	30.001 
01:20	25.6	25.6	25.6	70	17.2	0	1	248	0.00	30.000 
01:25	25.6	25.6	25.6	70	17.2	0	1	248	0.00	29.998 
01:30	25.4	25.4	25.4	70	17.0	0	1	248	0.00	29.999 
01:35	25.4	25.4	25.4	70	17.0	0	1	248	0.00	29.998 
01:40	25.4	25.4	25.4	71	17.3	0	1	248	0.00	29.996 
01:45	25.3	25.3	25.3	71	17.2	0	1	248	0.00	29.995 
01:50	25.3	25.3	25.3	71	17.2	0	1	248	0.00	29.994 
01:55	25.1	25.1	25.1	72	17.4	0	1	248	0.00	29.992 
02:00	25.0	25.0	25.0	72	17.3	0	1	248	0.00	29.992 
02:05	25.0	25.0	25.0	73	17.6	0	1	248	0.00	29.995 
02:10	24.8	24.8	24.8	73	17.4	0	1	248	0.00	29.996 
02:15	24.8	24.8	24.8	73	17.4	0	1	248	0.00	29.994 
02:20	24.8	24.8	24.8	73	17.4	0	1	248	0.00	29.994 
02:25	24.8	24.8	24.8	73	17.4	0	1	248	0.00	29.997 
02:30	24.7	24.7	24.7	74	17.6	0	1	248	0.00	29.996 
02:35	24.8	24.8	24.8	74	17.7	0	1	248	0.00	29.996 
02:40	24.8	24.8	24.8	74	17.7	0	1	248	0.00	29.995 
02:45	25.0	25.0	25.0	74	17.9	0	1	248	0.00	29.994 
02:50	25.0	25.0	25.0	74	17.9	0	1	248	0.00	29.994 
02:55	24.8	24.8	24.8	74	17.7	0	1	248	0.00	29.992 
03:00	24.8	24.8	24.8	74	17.7	0	1	248	0.00	29.992 
03:05	24.7	24.7	24.7	75	17.9	0	0	---	0.00	29.992 
03:10	24.7	24.7	24.7	75	17.9	0	0	---	0.00	29.991 
03:15	24.5	24.5	24.5	75	17.7	0	1	248	0.00	29.991 
03:20	24.4	24.4	24.4	76	17.9	0	1	248	0.00	29.992 
03:25	24.2	24.2	24.2	76	17.7	0	0	---	0.00	29.992 
03:30	24.1	24.1	24.1	76	17.7	0	0	---	0.00	29.992 
03:35	23.9	23.9	23.9	76	17.5	0	0	---	0.00	29.993 
03:40	23.9	23.9	23.9	76	17.5	0	0	---	0.00	29.992 
03:45	23.8	23.8	23.8	77	17.7	0	0	---	0.00	29.992 
03:50	23.5	23.5	23.5	77	17.4	0	0	---	0.00	29.992 
03:55	23.3	23.3	23.3	77	17.2	0	0	---	0.00	29.992 
04:00	23.2	23.2	23.2	77	17.1	0	0	---	0.00	29.992 
04:05	22.9	22.9	22.9	78	17.1	0	0	---	0.00	29.993 
04:10	22.7	22.7	22.7	78	16.9	0	0	---	0.00	29.993 
04:15	22.5	22.5	22.5	79	17.0	0	0	---	0.00	29.992 
04:20	22.2	22.2	22.2	79	16.7	0	0	---	0.00	29.994 
04:25	22.1	22.1	22.1	79	16.6	0	0	---	0.00	29.994 
04:30	21.8	21.8	21.8	80	16.6	0	0	---	0.00	29.994 
04:35	21.6	21.6	21.6	80	16.4	0	0	---	0.00	29.993 
04:40	21.4	21.4	21.4	81	16.5	0	0	---	0.00	29.993 
04:45	21.1	21.1	21.1	81	16.2	0	0	---	0.00	29.993 
04:50	21.0	21.0	21.0	81	16.1	0	0	---	0.00	29.993 
04:55	20.6	20.6	20.6	81	15.7	0	0	---	0.00	29.993 
05:00	20.5	20.5	20.5	82	15.9	0	0	---	0.00	29.993 
05:05	20.3	20.3	20.3	82	15.7	0	0	---	0.00	29.994 
05:10	20.0	20.0	20.0	82	15.4	0	0	---	0.00	29.994 
05:15	19.9	19.9	19.9	83	15.6	0	0	---	0.00	29.994 
05:20	19.7	19.7	19.7	84	15.7	0	0	---	0.00	29.993 
05:25	19.9	19.9	19.9	84	15.9	0	0	---	0.00	29.993 
05:30	20.0	20.0	20.0	85	16.2	0	0	---	0.00	29.991 
05:35	20.2	20.2	20.2	86	16.7	0	0	---	0.00	29.990 
05:40	20.3	20.3	20.3	86	16.8	0	0	---	0.00	29.991 
05:45	20.3	20.3	20.3	86	16.8	0	0	---	0.00	29.991 
05:50	20.3	20.3	20.3	86	16.8	0	0	---	0.00	29.991 
05:55	20.3	20.3	20.3	86	16.8	0	0	---	0.00	29.990 
06:00	20.3	20.3	20.3	86	16.8	0	0	---	0.00	29.989 
06:05	20.3	20.3	20.3	86	16.8	0	0	---	0.00	29.991 
06:10	20.3	20.3	20.3	86	16.8	0	0	---	0.00	29.990 
06:15	20.3	20.3	20.3	86	16.8	0	0	---	0.00	29.989 
06:20	20.5	20.5	20.5	86	17.0	0	0	---	0.00	29.990 
06:25	20.5	20.5	20.5	86	17.0	0	0	---	0.00	29.991 
06:30	20.5	20.5	20.5	86	17.0	0	0	---	0.00	29.990 
06:35	20.6	20.6	20.6	87	17.4	0	0	---	0.00	29.989 
06:40	21.0	21.0	21.0	87	17.8	0	0	---	0.00	29.990 
06:45	21.3	21.3	21.3	87	18.0	0	0	---	0.00	29.989 
06:50	21.6	21.6	21.6	87	18.3	0	0	---	0.00	29.985 
06:55	21.9	21.9	21.9	87	18.6	0	0	---	0.00	29.985 
07:00	22.2	22.2	22.2	87	18.9	0	0	---	0.00	29.984 
07:05	22.7	22.7	22.7	87	19.4	0	0	---	0.00	29.985 
07:10	23.2	23.2	23.2	86	19.6	0	1	248	0.00	29.985 
07:15	23.5	23.5	23.5	86	19.9	0	0	---	0.00	29.979 
07:20	24.1	24.1	24.1	85	20.3	0	1	248	0.00	29.979 
07:25	24.4	24.4	24.4	84	20.3	0	1	248	0.00	29.978 
07:30	25.1	25.1	25.1	83	20.7	0	1	248	0.00	29.976 
07:35	25.7	25.7	25.7	81	20.7	0	1	248	0.00	29.974 
07:40	26.3	26.3	26.3	80	21.0	0	2	248	0.00	29.975 
07:45	26.9	26.9	26.9	77	20.7	1	3	248	0.00	29.974 
07:50	27.2	27.2	27.2	74	20.0	1	2	338	0.00	29.974 
07:55	27.5	27.5	27.5	73	20.0	1	5	338	0.00	29.972 
08:00	27.8	27.8	27.8	72	20.0	1	5	270	0.00	29.971 
08:05	28.1	28.1	28.1	70	19.6	0	4	270	0.00	29.972 
08:10	28.4	28.4	28.4	68	19.2	1	3	292	0.00	29.970 
08:15	28.5	28.5	28.5	67	19.0	1	3	0	0.00	29.965 
08:20	28.7	28.7	28.7	62	17.4	2	4	292	0.00	29.963 
08:25	28.5	28.5	28.5	61	16.8	1	5	315	0.00	29.962 
08:30	28.8	28.8	28.8	61	17.1	2	6	270	0.00	29.959 
08:35	29.1	29.1	29.1	59	16.6	1	4	315	0.00	29.958 
08:40	29.1	29.1	29.1	58	16.2	2	6	270	0.00	29.957 
08:45	28.7	28.7	28.7	57	15.4	2	5	270	0.00	29.956 
08:50	28.7	28.7	28.7	58	15.8	1	6	315	0.00	29.956 
08:55	28.7	28.7	28.7	59	16.2	1	4	270	0.00	29.955 
09:00	28.5	28.5	28.5	59	16.0	2	6	0	0.00	29.953 
09:05	28.7	28.7	28.7	59	16.2	1	5	315	0.00	29.950 
09:10	28.8	28.8	28.8	57	15.5	2	5	270	0.00	29.949 
09:15	29.1	29.1	29.1	57	15.8	1	4	292	0.00	29.948 
09:20	29.4	29.4	29.4	55	15.3	1	5	338	0.00	29.947 
09:25	29.7	29.7	29.7	55	15.5	1	4	248	0.00	29.947 
09:30	29.8	29.8	29.8	54	15.2	2	5	292	0.00	29.947 
09:35	29.7	29.7	29.7	53	14.7	2	7	270	0.00	29.943 
09:40	30.0	30.0	30.0	51	14.1	3	7	270	0.00	29.945 
09:45	30.0	30.0	30.0	52	14.5	2	6	270	0.00	29.943 
09:50	29.8	29.8	29.8	51	13.9	3	10	270	0.00	29.943 
09:55	29.8	29.8	29.8	53	14.8	1	5	0	0.00	29.942 
10:00	30.0	30.0	30.0	53	15.0	1	5	270	0.00	29.942 
10:05	30.0	30.0	30.0	51	14.1	3	7	270	0.00	29.941 
10:10	30.1	30.1	30.1	49	13.3	3	6	248	0.00	29.944 
10:15	30.0	30.0	30.0	50	13.6	2	7	270	0.00	29.942 
10:20	30.1	30.1	30.1	50	13.7	2	5	292	0.00	29.942 
10:25	30.3	30.3	30.3	52	14.8	1	4	315	0.00	29.942 
10:30	30.3	30.3	30.3	48	13.0	3	6	270	0.00	29.941 
10:35	30.4	30.4	30.4	48	13.1	1	4	270	0.00	29.939 
10:40	30.4	30.4	30.4	50	14.0	1	4	270	0.00	29.939 
10:45	30.3	30.3	30.3	49	13.5	2	6	270	0.00	29.937 
10:50	30.3	30.3	30.3	48	13.0	2	5	315	0.00	29.936 
10:55	30.6	30.6	30.6	50	14.2	1	6	270	0.00	29.934 
11:00	30.6	30.6	30.6	49	13.7	2	4	315	0.00	29.933 
11:05	30.6	30.6	30.6	47	12.8	2	5	315	0.00	29.925 
11:10	30.9	30.9	30.9	48	13.5	2	5	292	0.00	29.926 
11:15	30.7	30.7	30.7	48	13.4	3	5	315	0.00	29.925 
11:20	30.7	30.7	30.7	48	13.4	2	7	0	0.00	29.925 
11:25	30.9	30.9	30.9	49	14.0	2	10	292	0.00	29.922 
11:30	30.6	30.6	30.6	46	12.3	2	4	292	0.00	29.923 
11:35	30.9	30.9	30.9	48	13.5	1	4	270	0.00	29.919 
11:40	30.9	30.9	30.9	47	13.1	2	5	248	0.00	29.918 
11:45	30.7	30.7	30.7	46	12.4	2	4	315	0.00	29.915 
11:50	30.9	30.9	30.9	47	13.1	1	3	315	0.00	29.914 
11:55	30.9	30.9	30.9	48	13.5	2	5	270	0.00	29.913 
12:00	30.6	30.6	30.6	47	12.8	3	7	315	0.00	29.913 
12:05	30.7	30.7	30.7	46	12.4	2	9	292	0.00	29.914 
12:10	30.9	30.9	30.9	49	14.0	2	5	270	0.00	29.911 
12:15	31.3	31.3	31.3	48	13.9	2	5	270	0.00	29.910 
12:20	31.2	31.2	31.2	49	14.3	2	4	315	0.00	29.910 
12:25	31.2	31.2	31.2	48	13.8	2	5	270	0.00	29.908 
12:30	30.7	30.7	30.7	48	13.4	3	7	270	0.00	29.909 
12:35	30.6	30.6	30.6	50	14.2	2	6	270	0.00	29.908 
12:40	30.6	30.6	30.6	49	13.7	2	6	270	0.00	29.908 
12:45	30.6	30.6	30.6	51	14.6	2	6	315	0.00	29.906 
12:50	31.0	31.0	31.0	53	15.9	2	6	270	0.00	29.900 
12:55	31.5	31.5	31.5	51	15.5	3	5	270	0.00	29.897 
13:00	31.6	31.6	31.6	50	15.1	2	5	270	0.00	29.895 
13:05	31.5	31.5	31.5	50	15.0	3	6	270	0.00	29.898 
13:10	31.0	31.0	31.0	51	15.0	3	7	270	0.00	29.896 
13:15	30.9	30.9	30.9	50	14.5	2	6	315	0.00	29.896 
13:20	30.9	30.9	30.9	50	14.5	1	5	315	0.00	29.895 
13:25	30.4	26.2	30.4	52	14.9	4	7	292	0.00	29.896 
13:30	30.3	30.3	30.3	56	16.5	2	7	292	0.00	29.897 
13:35	30.6	30.6	30.6	58	17.6	2	6	292	0.00	29.895 
13:40	31.5	31.5	31.5	57	18.0	1	7	0	0.00	29.894 
13:45	31.8	31.8	31.8	50	15.3	2	5	270	0.00	29.894 
13:50	31.3	27.3	31.3	53	16.2	4	9	270	0.00	29.895 
13:55	30.3	30.3	30.3	61	18.5	3	9	270	0.00	29.897 
14:00	29.5	29.5	29.5	69	20.6	1	3	270	0.00	29.895 
14:05	30.0	30.0	30.0	62	18.6	1	7	315	0.00	29.895 
14:10	30.7	30.7	30.7	59	18.1	2	6	315	0.00	29.892 
14:15	31.3	31.3	31.3	55	17.0	2	6	270	0.00	29.886 
14:20	31.6	31.6	31.6	55	17.3	2	6	270	0.00	29.883 
14:25	31.6	31.6	31.6	55	17.3	2	7	270	0.00	29.886 
14:30	31.8	31.8	31.8	52	16.2	2	5	315	0.00	29.887 
14:35	31.3	31.3	31.3	55	17.0	3	6	270	0.00	29.889 
14:40	30.4	30.4	30.4	62	19.0	3	9	270	0.00	29.889 
14:45	30.1	30.1	30.1	64	19.4	2	7	270	0.00	29.889 
14:50	31.0	31.0	31.0	61	19.1	2	5	270	0.00	29.884 
14:55	32.2	32.2	32.2	60	19.9	3	8	270	0.00	29.881 
15:00	31.6	27.6	31.6	58	18.5	4	11	270	0.00	29.883 
15:05	31.3	27.3	31.3	55	17.0	4	9	270	0.00	29.888 
15:10	30.9	30.9	30.9	54	16.2	3	9	338	0.00	29.885 
15:15	31.3	31.3	31.3	54	16.6	3	6	270	0.00	29.884 
15:20	31.0	31.0	31.0	63	19.9	2	6	315	0.00	29.889 
15:25	28.5	28.5	28.5	73	21.0	3	6	315	0.00	29.895 
15:30	27.8	27.8	27.8	73	20.3	2	7	270	0.00	29.896 
15:35	28.2	28.2	28.2	71	20.0	2	6	292	0.00	29.896 
15:40	28.8	28.8	28.8	70	20.3	3	6	292	0.00	29.894 
15:45	29.0	29.0	29.0	73	21.4	3	6	270	0.00	29.898 
15:50	28.7	24.3	28.7	68	19.5	4	9	270	0.00	29.898 
15:55	28.8	28.8	28.8	65	18.5	3	9	270	0.00	29.897 
16:00	29.4	29.4	29.4	69	20.5	2	9	292	0.00	29.897 
16:05	29.5	29.5	29.5	69	20.6	3	6	315	0.00	29.898 
16:10	29.7	29.7	29.7	65	19.4	3	7	270	0.00	29.898 
16:15	30.1	30.1	30.1	64	19.4	3	9	292	0.00	29.899 
16:20	30.3	30.3	30.3	64	19.6	3	7	315	0.00	29.900 
16:25	29.7	25.4	29.7	64	19.0	4	9	270	0.00	29.902 
16:30	29.0	29.0	29.0	59	16.5	3	6	270	0.00	29.901 
16:35	29.1	29.1	29.1	55	15.0	3	9	315	0.00	29.901 
16:40	29.7	29.7	29.7	57	16.4	2	5	270	0.00	29.902 
16:45	29.7	29.7	29.7	55	15.5	3	10	315	0.00	29.904 
16:50	29.4	29.4	29.4	53	14.4	3	10	292	0.00	29.905 
16:55	29.3	29.3	29.3	54	14.7	3	6	292	0.00	29.906 
17:00	29.4	29.4	29.4	55	15.3	2	6	315	0.00	29.905 
17:05	29.0	29.0	29.0	54	14.5	3	14	292	0.00	29.910 
17:10	29.0	29.0	29.0	54	14.5	3	9	292	0.00	29.912 
17:15	29.1	29.1	29.1	53	14.1	3	9	315	0.00	29.909 
17:20	29.4	29.4	29.4	54	14.8	3	9	292	0.00	29.911 
17:25	29.5	25.2	29.5	51	13.6	4	13	315	0.00	29.912 
17:30	29.4	29.4	29.4	49	12.6	2	5	315	0.00	29.913 
17:35	29.4	29.4	29.4	46	11.2	3	7	292	0.00	29.911 
17:40	29.0	29.0	29.0	48	11.8	2	7	292	0.00	29.915 
17:45	29.0	29.0	29.0	49	12.3	2	5	292	0.00	29.915 
17:50	29.0	29.0	29.0	46	10.8	2	6	315	0.00	29.916 
17:55	28.8	28.8	28.8	44	9.7	3	7	292	0.00	29.918 
18:00	28.8	28.8	28.8	45	10.2	2	5	315	0.00	29.918 
18:05	28.7	28.7	28.7	45	10.1	2	7	292	0.00	29.917 
18:10	28.5	28.5	28.5	44	9.4	3	9	292	0.00	29.916 
18:15	28.5	28.5	28.5	45	9.9	2	7	270	0.00	29.917 
18:20	28.5	28.5	28.5	45	9.9	1	4	292	0.00	29.917 
18:25	28.4	28.4	28.4	45	9.8	3	6	292	0.00	29.917 
18:30	28.4	28.4	28.4	46	10.3	2	5	315	0.00	29.918 
18:35	28.2	28.2	28.2	46	10.1	2	9	315	0.00	29.917 
18:40	28.1	28.1	28.1	48	11.0	3	6	270	0.00	29.920 
18:45	27.9	27.9	27.9	48	10.8	2	5	292	0.00	29.919 
18:50	27.8	27.8	27.8	47	10.2	3	7	270	0.00	29.919 
18:55	27.8	27.8	27.8	46	9.7	3	7	292	0.00	29.921 
19:00	27.8	27.8	27.8	47	10.2	2	5	315	0.00	29.919 
19:05	27.8	27.8	27.8	48	10.7	3	10	270	0.00	29.914 
19:10	27.6	27.6	27.6	50	11.4	3	8	292	0.00	29.915 
19:15	27.5	27.5	27.5	50	11.3	2	7	270	0.00	29.914 
19:20	27.5	27.5	27.5	50	11.3	2	9	270	0.00	29.915 
19:25	27.5	27.5	27.5	50	11.3	1	4	292	0.00	29.915 
19:30	27.5	27.5	27.5	51	11.8	1	3	292	0.00	29.917 
19:35	27.5	27.5	27.5	52	12.2	1	3	315	0.00	29.917 
19:40	27.5	27.5	27.5	53	12.6	1	7	270	0.00	29.918 
19:45	27.3	27.3	27.3	54	12.9	1	3	315	0.00	29.921 
19:50	27.2	27.2	27.2	58	14.4	1	4	315	0.00	29.919 
19:55	27.0	27.0	27.0	55	13.0	0	2	338	0.00	29.920 
20:00	26.9	26.9	26.9	55	12.9	1	4	292	0.00	29.921 
20:05	26.7	26.7	26.7	56	13.1	1	3	315	0.00	29.921 
20:10	26.6	26.6	26.6	56	13.0	1	4	292	0.00	29.923 
20:15	26.6	26.6	26.6	57	13.4	0	3	270	0.00	29.923 
20:20	26.4	26.4	26.4	58	13.7	0	3	270	0.00	29.925 
20:25	26.3	26.3	26.3	57	13.2	1	3	315	0.00	29.925 
20:30	26.1	26.1	26.1	57	13.0	1	3	292	0.00	29.923 
20:35	26.1	26.1	26.1	57	13.0	1	4	248	0.00	29.921 
20:40	26.0	26.0	26.0	58	13.3	0	1	292	0.00	29.918 
20:45	25.7	25.7	25.7	58	13.0	0	2	292	0.00	29.919 
20:50	25.6	25.6	25.6	59	13.3	0	1	292	0.00	29.920 
20:55	25.4	25.4	25.4	59	13.1	0	2	292	0.00	29.920 
21:00	25.3	25.3	25.3	59	13.0	0	1	248	0.00	29.921 
21:05	25.1	25.1	25.1	60	13.2	0	1	248	0.00	29.918 
21:10	25.0	25.0	25.0	60	13.1	0	1	248	0.00	29.920 
21:15	24.8	24.8	24.8	60	12.9	0	1	248	0.00	29.922 
21:20	24.8	24.8	24.8	61	13.3	0	1	248	0.00	29.922 
21:25	24.7	24.7	24.7	61	13.2	0	0	---	0.00	29.923 
21:30	24.5	24.5	24.5	62	13.4	0	0	---	0.00	29.922 
21:35	24.5	24.5	24.5	62	13.4	0	0	---	0.00	29.924 
21:40	24.4	24.4	24.4	62	13.3	0	1	248	0.00	29.923 
21:45	24.4	24.4	24.4	62	13.3	0	1	248	0.00	29.924 
21:50	24.4	24.4	24.4	62	13.3	0	1	248	0.00	29.922 
21:55	24.5	24.5	24.5	62	13.4	0	1	248	0.00	29.922 
22:00	24.7	24.7	24.7	62	13.6	0	1	248	0.00	29.919 
22:05	25.0	25.0	25.0	60	13.1	0	2	248	0.00	29.919 
22:10	25.4	25.4	25.4	60	13.5	1	3	338	0.00	29.916 
22:15	25.7	25.7	25.7	59	13.4	1	3	270	0.00	29.915 
22:20	26.0	26.0	26.0	59	13.7	1	3	315	0.00	29.914 
22:25	26.0	26.0	26.0	59	13.7	1	3	315	0.00	29.912 
22:30	26.0	26.0	26.0	60	14.0	1	5	270	0.00	29.911 
22:35	26.0	26.0	26.0	62	14.8	1	4	270	0.00	29.910 
22:40	26.0	26.0	26.0	62	14.8	1	4	270	0.00	29.908 
22:45	25.8	25.8	25.8	62	14.6	1	4	248	0.00	29.908 
22:50	25.8	25.8	25.8	62	14.6	1	3	248	0.00	29.907 
22:55	25.8	25.8	25.8	63	15.0	1	2	248	0.00	29.901 
23:00	25.8	25.8	25.8	63	15.0	1	3	292	0.00	29.902 
23:05	25.8	25.8	25.8	64	15.3	1	4	248	0.00	29.902 
23:10	25.8	25.8	25.8	65	15.7	1	2	270	0.00	29.898 
23:15	25.8	25.8	25.8	67	16.4	1	4	248	0.00	29.897 
23:20	25.7	25.7	25.7	69	17.0	1	4	270	0.00	29.897 
23:25	25.6	25.6	25.6	70	17.2	1	2	248	0.00	29.896 
23:30	25.4	25.4	25.4	71	17.3	1	2	248	0.00	29.895 
23:35	25.4	25.4	25.4	72	17.7	0	2	248	0.00	29.895 
23:40	25.4	25.4	25.4	72	17.7	0	2	270	0.00	29.895 
23:45	25.4	25.4	25.4	73	18.0	1	3	248	0.00	29.894 
23:50	25.6	25.6	25.6	75	18.8	1	2	248	0.00	29.894 
23:55	25.6	25.6	25.6	75	18.8	1	3	248	0.00	29.893 

CoCoRaHS
IN-AL-39
A2 Web Hosting
Creative Commons License
GoDaddy
Look for:

loaded 2017-12-12 07:02:48 • last modified 2010-11-18 10:43:29
Privacy PolicyDisclaimer
• wx.awcolley.com is powered by PmWiki v.2002016 •
• all content (unless otherwise noted) © 2017 A W Colley